Time;durP1;ratioP1;P1;durP2;ratioP2;P2;SDS_P1;SDS_P2;PMS_P1;PMS_P2;Temp;Humidity;BMP_temperature;BMP_pressure;BME280_temperature;BME280_humidity;BME280_pressure;Samples;Min_cycle;Max_cycle;Signal;HPM_P1;HPM_P2
2023/12/15 00:00:03;;;;;;;35.05;15.88;;;4.20;99.90;;;;;;5027744;28;20390;-58
2023/12/15 00:02:29;;;;;;;34.00;15.10;;;4.20;99.90;;;;;;5025526;28;20025;-51
2023/12/15 00:04:54;;;;;;;34.28;14.95;;;4.20;99.90;;;;;;5027563;28;20033;-51
2023/12/15 00:07:20;;;;;;;38.05;15.65;;;4.20;99.90;;;;;;5026016;28;20487;-55
2023/12/15 00:09:46;;;;;;;38.42;15.88;;;4.20;99.90;;;;;;5030154;28;20037;-54
2023/12/15 00:12:11;;;;;;;32.75;13.82;;;4.20;99.90;;;;;;5029725;28;20053;-52
2023/12/15 00:14:37;;;;;;;34.78;14.93;;;4.20;99.90;;;;;;5025724;28;20061;-54
2023/12/15 00:17:03;;;;;;;31.90;14.52;;;4.30;99.90;;;;;;5027117;28;20029;-57
2023/12/15 00:19:28;;;;;;;38.83;16.42;;;4.30;99.90;;;;;;5026730;28;20116;-57
2023/12/15 00:21:54;;;;;;;31.88;13.98;;;4.30;99.90;;;;;;5027078;28;20029;-50
2023/12/15 00:24:20;;;;;;;39.72;14.88;;;4.30;99.90;;;;;;5026476;28;20037;-50
2023/12/15 00:26:45;;;;;;;31.38;15.40;;;4.30;99.90;;;;;;5024022;28;20036;-56
2023/12/15 00:29:11;;;;;;;33.47;15.00;;;4.30;99.90;;;;;;5025931;28;20030;-58
2023/12/15 00:31:36;;;;;;;37.03;14.98;;;4.30;99.90;;;;;;5023741;28;20022;-54
2023/12/15 00:34:02;;;;;;;39.17;16.50;;;4.30;99.90;;;;;;5027574;28;20033;-51
2023/12/15 00:36:28;;;;;;;29.85;14.13;;;4.30;99.90;;;;;;5023504;28;20037;-51
2023/12/15 00:38:54;;;;;;;36.95;15.02;;;4.30;99.90;;;;;;5027840;28;20040;-52
2023/12/15 00:41:19;;;;;;;40.40;17.02;;;4.30;99.90;;;;;;5028746;28;20084;-56
2023/12/15 00:43:45;;;;;;;36.03;15.07;;;4.30;99.90;;;;;;5023934;28;20040;-52
2023/12/15 00:46:10;;;;;;;32.13;15.40;;;4.30;99.90;;;;;;5027395;28;20384;-51
2023/12/15 00:48:36;;;;;;;34.63;15.18;;;4.30;99.90;;;;;;5027783;28;20112;-56
2023/12/15 00:51:02;;;;;;;32.20;15.07;;;4.30;99.90;;;;;;5026978;28;20395;-51
2023/12/15 00:53:32;;;;;;;34.28;14.82;;;4.40;99.90;;;;;;5029262;28;20021;-53
2023/12/15 00:56:00;;;;;;;36.20;16.65;;;4.30;99.90;;;;;;5027322;28;20065;-51
2023/12/15 00:58:26;;;;;;;34.58;15.82;;;4.30;99.90;;;;;;5025663;28;20039;-55
2023/12/15 01:00:52;;;;;;;38.08;15.80;;;4.30;99.90;;;;;;5019613;28;20025;-58
2023/12/15 01:03:17;;;;;;;30.95;15.98;;;4.30;99.90;;;;;;5025936;28;20021;-51
2023/12/15 01:05:43;;;;;;;33.17;14.70;;;4.40;99.90;;;;;;5027117;28;20124;-52
2023/12/15 01:08:09;;;;;;;36.13;16.48;;;4.40;99.90;;;;;;5027187;28;20029;-58
2023/12/15 01:10:34;;;;;;;33.85;14.88;;;4.40;99.90;;;;;;5029747;28;20037;-54
2023/12/15 01:13:00;;;;;;;37.17;15.88;;;4.40;99.90;;;;;;5027578;28;20546;-59
2023/12/15 01:15:25;;;;;;;39.10;15.25;;;4.40;99.90;;;;;;5023818;28;20107;-56
2023/12/15 01:17:51;;;;;;;34.35;14.93;;;4.40;99.90;;;;;;5025892;28;20037;-58
2023/12/15 01:20:17;;;;;;;31.30;16.17;;;4.40;99.90;;;;;;5027404;28;20025;-51
2023/12/15 01:22:43;;;;;;;30.35;14.18;;;4.40;99.90;;;;;;5029072;28;20103;-51
2023/12/15 01:25:09;;;;;;;36.13;15.98;;;4.40;99.90;;;;;;5029074;28;20080;-51
2023/12/15 01:27:35;;;;;;;31.67;14.63;;;4.40;99.90;;;;;;5027472;28;20457;-51
2023/12/15 01:30:00;;;;;;;32.50;14.35;;;4.40;99.90;;;;;;5017613;28;20124;-56
2023/12/15 01:32:26;;;;;;;32.25;14.07;;;4.40;99.90;;;;;;5032635;28;20487;-53
2023/12/15 01:34:52;;;;;;;32.17;14.13;;;4.50;99.90;;;;;;5030309;28;20125;-55
2023/12/15 01:37:17;;;;;;;36.92;15.35;;;4.50;99.90;;;;;;5031827;28;20079;-51
2023/12/15 01:39:43;;;;;;;32.70;14.40;;;4.50;99.90;;;;;;5032735;28;20103;-51
2023/12/15 01:42:08;;;;;;;34.85;15.90;;;4.50;99.90;;;;;;5031161;28;20026;-54
2023/12/15 01:44:34;;;;;;;39.00;15.88;;;4.50;99.90;;;;;;5030915;28;20083;-58
2023/12/15 01:47:01;;;;;;;30.67;14.50;;;4.40;99.90;;;;;;5033063;28;20018;-51
2023/12/15 01:49:31;;;;;;;33.72;14.68;;;4.50;99.90;;;;;;5027831;28;20040;-52
2023/12/15 01:51:56;;;;;;;34.33;15.25;;;4.40;99.90;;;;;;5030416;28;20064;-53
2023/12/15 01:54:22;;;;;;;44.40;15.45;;;4.40;99.90;;;;;;5031769;28;20056;-51
2023/12/15 01:56:48;;;;;;;37.10;15.60;;;4.40;99.90;;;;;;5028857;28;20029;-54
2023/12/15 01:59:13;;;;;;;35.65;16.77;;;4.40;99.90;;;;;;5031643;28;20044;-53
2023/12/15 02:01:39;;;;;;;34.50;15.40;;;4.40;99.90;;;;;;5030306;28;20472;-52
2023/12/15 02:04:05;;;;;;;36.25;16.20;;;4.40;99.90;;;;;;5031777;28;20113;-57
2023/12/15 02:06:30;;;;;;;32.95;13.18;;;4.40;99.90;;;;;;5030187;28;20029;-51
2023/12/15 02:08:56;;;;;;;36.40;14.45;;;4.50;99.90;;;;;;5030886;28;20033;-51
2023/12/15 02:11:22;;;;;;;36.58;15.38;;;4.50;99.90;;;;;;5028999;28;20470;-54
2023/12/15 02:13:47;;;;;;;32.88;12.85;;;4.50;99.90;;;;;;5032743;28;20128;-53
2023/12/15 02:16:13;;;;;;;32.42;14.55;;;4.50;99.90;;;;;;5030230;28;20033;-51
2023/12/15 02:18:39;;;;;;;31.08;14.68;;;4.50;99.90;;;;;;5030859;28;20079;-55
2023/12/15 02:21:05;;;;;;;35.90;16.15;;;4.50;99.90;;;;;;5031152;28;20505;-55
2023/12/15 02:23:30;;;;;;;33.40;14.55;;;4.50;99.90;;;;;;5030223;28;20045;-58
2023/12/15 02:25:56;;;;;;;33.42;15.07;;;4.50;99.90;;;;;;5031699;28;20136;-54
2023/12/15 02:28:21;;;;;;;35.35;15.48;;;4.50;99.90;;;;;;5031802;28;20022;-50
2023/12/15 02:30:47;;;;;;;35.80;15.20;;;4.50;99.90;;;;;;5029942;28;20026;-50
2023/12/15 02:33:14;;;;;;;32.67;15.52;;;4.50;99.90;;;;;;5028643;28;20026;-52
2023/12/15 02:35:41;;;;;;;33.20;14.38;;;4.60;99.90;;;;;;5031680;28;20036;-51
2023/12/15 02:38:10;;;;;;;31.02;14.90;;;4.60;99.90;;;;;;5029698;28;20025;-53
2023/12/15 02:40:36;;;;;;;31.30;13.85;;;4.60;99.90;;;;;;5030395;28;21748;-51
2023/12/15 02:43:02;;;;;;;36.00;14.52;;;4.60;99.90;;;;;;5027708;28;20115;-53
2023/12/15 02:45:27;;;;;;;36.72;15.77;;;4.60;99.90;;;;;;5028835;28;20065;-57
2023/12/15 02:47:53;;;;;;;34.78;14.95;;;4.60;99.90;;;;;;5030378;28;20025;-54
2023/12/15 02:50:19;;;;;;;32.50;14.43;;;4.60;99.90;;;;;;5031444;28;20042;-53
2023/12/15 02:52:44;;;;;;;33.05;14.98;;;4.60;99.90;;;;;;5031449;28;20423;-51
2023/12/15 02:55:12;;;;;;;36.17;15.32;;;4.60;99.90;;;;;;5029511;28;20033;-51
2023/12/15 02:57:39;;;;;;;36.70;15.55;;;4.60;99.90;;;;;;5030820;28;20150;-60
2023/12/15 03:00:05;;;;;;;38.55;16.17;;;4.60;99.90;;;;;;5028630;28;20022;-56
2023/12/15 03:02:31;;;;;;;34.85;15.23;;;4.60;99.90;;;;;;5029824;28;20044;-50
2023/12/15 03:04:56;;;;;;;31.55;16.25;;;4.60;99.90;;;;;;5029473;28;20025;-52
2023/12/15 03:07:22;;;;;;;32.60;14.82;;;4.60;99.90;;;;;;5028883;28;20018;-54
2023/12/15 03:09:47;;;;;;;43.03;15.80;;;4.60;99.90;;;;;;5031396;28;20025;-60
2023/12/15 03:12:13;;;;;;;38.13;15.65;;;4.60;99.90;;;;;;5030685;28;20029;-50
2023/12/15 03:14:39;;;;;;;39.38;15.88;;;4.60;99.90;;;;;;5028494;28;20088;-54
2023/12/15 03:17:04;;;;;;;34.83;15.95;;;4.60;99.90;;;;;;5030311;28;20040;-53
2023/12/15 03:19:30;;;;;;;34.95;14.40;;;4.60;99.90;;;;;;5029924;28;20446;-51
2023/12/15 03:21:55;;;;;;;36.03;14.73;;;4.60;99.90;;;;;;5030634;28;20033;-51
2023/12/15 03:24:21;;;;;;;37.22;14.88;;;4.60;99.90;;;;;;5030946;28;20030;-51
2023/12/15 03:26:46;;;;;;;32.85;14.85;;;4.60;99.90;;;;;;5026343;28;20037;-57
2023/12/15 03:29:12;;;;;;;33.22;15.13;;;4.60;99.90;;;;;;5028817;28;20029;-50
2023/12/15 03:31:40;;;;;;;37.13;15.50;;;4.60;99.90;;;;;;5027691;28;20090;-50
2023/12/15 03:34:06;;;;;;;37.47;17.10;;;4.70;99.90;;;;;;5027931;28;20056;-51
2023/12/15 03:36:35;;;;;;;42.22;16.52;;;4.60;99.90;;;;;;5030543;28;20057;-56
2023/12/15 03:39:01;;;;;;;37.67;16.55;;;4.70;99.90;;;;;;5026232;28;20498;-61
2023/12/15 03:41:26;;;;;;;36.25;15.90;;;4.70;99.90;;;;;;5028269;28;20037;-51
2023/12/15 03:43:52;;;;;;;45.70;19.20;;;4.70;99.90;;;;;;5028487;28;20029;-51
2023/12/15 03:46:17;;;;;;;40.20;16.00;;;4.70;99.90;;;;;;5027348;28;20028;-53
2023/12/15 03:48:43;;;;;;;33.92;15.50;;;4.70;99.90;;;;;;5029770;28;20021;-54
2023/12/15 03:51:08;;;;;;;40.13;15.20;;;4.70;99.90;;;;;;5029562;28;20068;-54
2023/12/15 03:53:34;;;;;;;31.67;14.20;;;4.60;99.90;;;;;;5027627;28;20025;-51
2023/12/15 03:56:00;;;;;;;29.35;14.32;;;4.60;99.90;;;;;;5028935;28;20041;-56
2023/12/15 03:58:25;;;;;;;35.28;14.18;;;4.70;99.90;;;;;;5029296;28;20048;-52
2023/12/15 04:00:51;;;;;;;33.65;15.32;;;4.70;99.90;;;;;;5025032;28;20030;-52
2023/12/15 04:03:17;;;;;;;28.30;12.52;;;4.70;99.90;;;;;;5030749;28;20036;-51
2023/12/15 04:05:43;;;;;;;37.53;14.98;;;4.70;99.90;;;;;;5027307;28;20037;-55
2023/12/15 04:08:08;;;;;;;28.30;14.23;;;4.70;99.90;;;;;;5028265;28;20031;-55
2023/12/15 04:10:34;;;;;;;31.95;14.00;;;4.70;99.90;;;;;;5029757;28;20025;-51
2023/12/15 04:12:59;;;;;;;31.50;15.43;;;4.70;99.90;;;;;;5029670;28;20492;-56
2023/12/15 04:15:26;;;;;;;33.83;13.27;;;4.70;99.90;;;;;;5026531;28;20033;-55
2023/12/15 04:17:51;;;;;;;33.00;14.90;;;4.70;99.90;;;;;;5026431;28;20030;-51
2023/12/15 04:20:17;;;;;;;30.77;13.75;;;4.70;99.90;;;;;;5029533;28;20502;-53
2023/12/15 04:22:43;;;;;;;30.27;14.55;;;4.70;99.90;;;;;;5029479;28;20100;-56
2023/12/15 04:25:08;;;;;;;34.30;14.23;;;4.80;99.90;;;;;;5029117;28;20424;-53
2023/12/15 04:27:34;;;;;;;27.75;13.05;;;4.70;99.90;;;;;;5026273;28;20067;-54
2023/12/15 04:29:59;;;;;;;30.92;14.15;;;4.80;99.90;;;;;;5025547;28;20029;-54
2023/12/15 04:32:25;;;;;;;31.20;13.75;;;4.80;99.90;;;;;;5027616;28;20136;-51
2023/12/15 04:34:50;;;;;;;31.92;13.02;;;4.80;99.90;;;;;;5029766;28;20030;-51
2023/12/15 04:37:16;;;;;;;26.73;12.65;;;4.80;99.90;;;;;;5027330;28;20479;-51
2023/12/15 04:39:43;;;;;;;24.52;12.63;;;4.80;99.90;;;;;;5027105;28;20037;-55
2023/12/15 04:42:09;;;;;;;24.33;12.05;;;4.80;99.90;;;;;;5028869;28;20037;-53
2023/12/15 04:44:35;;;;;;;33.47;12.07;;;4.80;99.90;;;;;;5028406;28;20025;-54
2023/12/15 04:47:01;;;;;;;30.88;12.68;;;4.80;99.90;;;;;;5027447;28;20163;-51
2023/12/15 04:49:26;;;;;;;30.27;13.57;;;4.80;99.90;;;;;;5029426;28;20492;-51
2023/12/15 04:51:52;;;;;;;25.52;12.05;;;4.80;99.90;;;;;;5022698;28;20033;-56
2023/12/15 04:54:18;;;;;;;29.58;12.18;;;4.90;99.90;;;;;;5029387;28;20060;-54
2023/12/15 04:56:44;;;;;;;28.33;12.10;;;4.90;99.90;;;;;;5025773;28;20481;-51
2023/12/15 04:59:10;;;;;;;32.22;12.68;;;4.90;99.90;;;;;;5029192;28;20508;-51
2023/12/15 05:01:36;;;;;;;32.63;12.10;;;4.90;99.90;;;;;;5031209;28;20129;-52
2023/12/15 05:04:02;;;;;;;36.92;12.70;;;4.90;99.90;;;;;;5033430;28;20072;-51
2023/12/15 05:06:28;;;;;;;28.08;12.65;;;4.90;99.90;;;;;;5032602;28;20026;-52
2023/12/15 05:08:55;;;;;;;30.45;12.90;;;4.80;99.90;;;;;;5033222;28;20447;-54
2023/12/15 05:11:20;;;;;;;28.05;12.48;;;4.90;99.90;;;;;;5031692;28;20033;-50
2023/12/15 05:13:46;;;;;;;31.90;13.23;;;4.90;99.90;;;;;;5033725;28;20379;-51
2023/12/15 05:16:12;;;;;;;27.02;12.13;;;4.90;99.90;;;;;;5032644;28;20112;-53
2023/12/15 05:18:37;;;;;;;32.63;13.90;;;4.90;99.90;;;;;;5033512;28;20032;-56
2023/12/15 05:21:04;;;;;;;33.28;12.95;;;4.90;99.90;;;;;;5031556;28;20036;-53
2023/12/15 05:23:30;;;;;;;30.77;12.93;;;4.90;99.90;;;;;;5033000;28;20029;-54
2023/12/15 05:25:56;;;;;;;28.55;12.93;;;4.90;99.90;;;;;;5030942;28;20125;-58
2023/12/15 05:28:21;;;;;;;27.92;12.07;;;4.90;99.90;;;;;;5031788;28;20040;-50
2023/12/15 05:30:47;;;;;;;24.55;11.05;;;4.90;99.90;;;;;;5032960;28;20025;-51
2023/12/15 05:33:13;;;;;;;27.23;13.13;;;4.90;99.90;;;;;;5032428;28;20087;-52
2023/12/15 05:35:39;;;;;;;31.20;13.02;;;4.90;99.90;;;;;;5029678;28;20030;-52
2023/12/15 05:38:04;;;;;;;31.95;13.48;;;4.80;99.90;;;;;;5032415;28;20026;-54
2023/12/15 05:40:30;;;;;;;29.67;12.68;;;4.80;99.90;;;;;;5032670;28;20045;-51
2023/12/15 05:42:56;;;;;;;28.50;13.15;;;4.90;99.90;;;;;;5031306;28;20083;-53
2023/12/15 05:45:21;;;;;;;29.00;12.15;;;4.90;99.90;;;;;;5029375;28;20041;-56
2023/12/15 05:47:48;;;;;;;29.25;12.73;;;4.90;99.90;;;;;;5032633;28;20017;-53
2023/12/15 05:50:14;;;;;;;28.55;11.80;;;4.90;99.90;;;;;;5032488;28;20083;-59
2023/12/15 05:52:40;;;;;;;33.65;11.60;;;4.90;99.90;;;;;;5032151;28;20104;-51
2023/12/15 05:55:06;;;;;;;24.98;11.45;;;4.90;99.90;;;;;;5032552;28;20037;-53
2023/12/15 05:57:31;;;;;;;22.27;10.80;;;4.90;99.90;;;;;;5007912;28;20110;-53
2023/12/15 05:59:57;;;;;;;25.20;12.00;;;4.90;99.90;;;;;;5031655;28;20105;-51
2023/12/15 06:02:23;;;;;;;31.02;12.65;;;4.90;99.90;;;;;;5031720;28;20025;-51
2023/12/15 06:04:48;;;;;;;20.45;10.02;;;4.90;99.90;;;;;;5032542;28;20040;-51
2023/12/15 06:07:15;;;;;;;22.42;10.65;;;4.90;99.90;;;;;;5028990;28;20033;-54
2023/12/15 06:09:41;;;;;;;27.50;10.57;;;4.90;99.90;;;;;;5029184;28;20031;-51
2023/12/15 06:12:07;;;;;;;21.85;10.93;;;4.90;99.90;;;;;;5028309;28;20116;-51
2023/12/15 06:14:35;;;;;;;21.88;11.00;;;5.00;99.90;;;;;;5030553;28;20075;-51
2023/12/15 06:17:00;;;;;;;23.88;10.88;;;5.00;99.90;;;;;;5031576;28;20031;-58
2023/12/15 06:19:26;;;;;;;27.27;10.15;;;5.00;99.90;;;;;;5031377;28;20084;-54
2023/12/15 06:21:51;;;;;;;24.92;11.15;;;5.00;99.90;;;;;;5027217;28;20032;-52
2023/12/15 06:24:17;;;;;;;25.13;10.52;;;5.00;99.90;;;;;;5029839;28;20033;-60
2023/12/15 06:26:43;;;;;;;23.83;11.30;;;5.00;99.90;;;;;;5030257;28;20104;-51
2023/12/15 06:29:08;;;;;;;25.95;11.43;;;5.00;99.90;;;;;;5031316;28;20480;-51
2023/12/15 06:31:34;;;;;;;25.38;11.50;;;5.00;99.90;;;;;;5030036;28;20029;-58
2023/12/15 06:33:59;;;;;;;23.10;10.82;;;4.90;99.90;;;;;;5031771;28;20029;-53
2023/12/15 06:36:28;;;;;;;25.77;10.95;;;4.90;99.90;;;;;;5027997;28;20053;-56
2023/12/15 06:38:53;;;;;;;23.05;10.82;;;4.90;99.90;;;;;;5029435;28;20398;-56
2023/12/15 06:41:20;;;;;;;33.85;12.02;;;4.90;99.90;;;;;;5031290;28;20108;-57
2023/12/15 06:43:46;;;;;;;32.35;12.65;;;4.90;99.90;;;;;;5029980;28;20063;-51
2023/12/15 06:46:12;;;;;;;24.90;12.32;;;4.90;99.90;;;;;;5029982;28;20466;-52
2023/12/15 06:48:38;;;;;;;28.83;11.35;;;4.90;99.90;;;;;;5032107;28;20029;-51
2023/12/15 06:51:05;;;;;;;20.67;10.25;;;5.00;99.90;;;;;;5030807;28;20366;-54
2023/12/15 06:53:31;;;;;;;25.13;11.50;;;5.00;99.90;;;;;;5029599;28;20091;-51
2023/12/15 06:55:58;;;;;;;24.95;12.00;;;5.00;99.90;;;;;;5030709;28;20059;-50
2023/12/15 06:58:24;;;;;;;23.90;11.60;;;5.00;99.90;;;;;;5029798;28;20025;-54
2023/12/15 07:00:50;;;;;;;46.67;19.73;;;5.00;99.90;;;;;;5030590;28;20095;-55
2023/12/15 07:03:16;;;;;;;32.38;13.30;;;5.10;99.90;;;;;;5029634;28;20511;-55
2023/12/15 07:05:41;;;;;;;25.75;11.88;;;5.10;99.90;;;;;;5031029;28;20033;-56
2023/12/15 07:08:07;;;;;;;38.20;13.93;;;5.10;99.90;;;;;;5028823;28;20475;-51
2023/12/15 07:10:32;;;;;;;42.95;14.25;;;5.10;99.90;;;;;;5028206;28;20056;-54
2023/12/15 07:12:58;;;;;;;31.08;12.30;;;5.10;99.90;;;;;;5031036;28;20472;-54
2023/12/15 07:15:27;;;;;;;62.10;26.27;;;5.10;99.90;;;;;;5030441;28;20033;-53
2023/12/15 07:17:53;;;;;;;32.33;14.20;;;5.10;99.90;;;;;;5028676;28;20041;-56
2023/12/15 07:20:19;;;;;;;28.48;12.85;;;5.10;99.90;;;;;;5028418;28;20029;-52
2023/12/15 07:22:45;;;;;;;25.23;11.02;;;5.10;99.90;;;;;;5031159;28;20037;-54
2023/12/15 07:25:11;;;;;;;27.45;12.10;;;5.10;99.90;;;;;;5030166;28;20030;-55
2023/12/15 07:27:36;;;;;;;35.85;17.55;;;5.10;99.90;;;;;;5030658;28;20104;-50
2023/12/15 07:30:02;;;;;;;34.40;16.17;;;5.10;99.90;;;;;;5031254;28;20021;-51
2023/12/15 07:32:27;;;;;;;75.70;32.70;;;5.10;99.90;;;;;;5022813;28;20026;-54
2023/12/15 07:34:53;;;;;;;47.83;19.65;;;5.10;99.90;;;;;;5027121;28;20030;-53
2023/12/15 07:37:18;;;;;;;30.98;13.68;;;5.20;99.90;;;;;;5028573;28;20091;-50
2023/12/15 07:39:44;;;;;;;27.90;12.35;;;5.20;99.90;;;;;;5030615;28;20041;-56
2023/12/15 07:42:11;;;;;;;25.55;12.00;;;5.10;99.90;;;;;;5030242;28;20037;-55
2023/12/15 07:44:37;;;;;;;24.40;12.38;;;5.20;99.90;;;;;;5029026;28;20030;-51
2023/12/15 07:47:03;;;;;;;27.00;11.18;;;5.20;99.90;;;;;;5026317;28;20025;-55
2023/12/15 07:49:33;;;;;;;23.30;11.10;;;5.20;99.90;;;;;;5030051;28;20025;-51
2023/12/15 07:51:59;;;;;;;25.67;11.55;;;5.20;99.90;;;;;;5030627;28;20029;-51
2023/12/15 07:54:25;;;;;;;27.85;11.77;;;5.20;99.90;;;;;;5030759;28;20555;-51
2023/12/15 07:56:51;;;;;;;23.42;10.52;;;5.30;99.90;;;;;;5024898;28;20110;-56
2023/12/15 07:59:16;;;;;;;28.73;12.65;;;5.30;99.90;;;;;;5030417;28;20029;-62
2023/12/15 08:01:49;;;;;;;26.23;11.80;;;5.30;99.90;;;;;;5029051;28;20041;-51
2023/12/15 08:04:15;;;;;;;31.10;13.32;;;5.30;99.90;;;;;;5037736;28;20059;-52
2023/12/15 08:06:40;;;;;;;35.78;16.20;;;5.30;99.90;;;;;;5039106;28;20577;-51
2023/12/15 08:09:06;;;;;;;44.45;19.05;;;5.30;99.90;;;;;;5035172;28;20029;-52
2023/12/15 08:11:32;;;;;;;32.83;14.18;;;5.30;99.90;;;;;;5032746;28;20025;-51
2023/12/15 08:13:58;;;;;;;40.33;17.77;;;5.30;99.90;;;;;;5045890;28;20021;-51
2023/12/15 08:16:23;;;;;;;61.67;29.38;;;5.30;99.90;;;;;;5047582;28;20033;-58
2023/12/15 08:18:50;;;;;;;38.85;17.75;;;5.30;99.90;;;;;;5048792;28;20029;-56
2023/12/15 08:21:15;;;;;;;25.92;13.38;;;5.40;99.90;;;;;;5049893;28;20032;-56
2023/12/15 08:23:41;;;;;;;42.38;21.33;;;5.40;99.90;;;;;;5052050;28;20025;-51
2023/12/15 08:26:07;;;;;;;46.25;22.33;;;5.40;99.90;;;;;;5049740;28;20044;-54
2023/12/15 08:28:32;;;;;;;41.20;20.45;;;5.50;99.90;;;;;;5046465;28;20107;-51
2023/12/15 08:30:58;;;;;;;37.65;16.95;;;5.50;99.90;;;;;;5044955;28;20116;-54
2023/12/15 08:33:24;;;;;;;27.90;14.45;;;5.50;99.90;;;;;;5049193;28;20029;-54
2023/12/15 08:35:50;;;;;;;28.73;15.00;;;5.60;99.90;;;;;;5043996;28;20029;-54
2023/12/15 08:38:16;;;;;;;24.00;11.48;;;5.60;99.90;;;;;;5045297;28;20403;-51
2023/12/15 08:40:41;;;;;;;26.98;12.88;;;5.60;99.90;;;;;;5047548;28;20131;-55
2023/12/15 08:43:07;;;;;;;23.80;10.57;;;5.70;99.90;;;;;;5049150;28;20082;-50
2023/12/15 08:45:33;;;;;;;27.67;10.57;;;5.70;99.90;;;;;;5045344;28;20044;-54
2023/12/15 08:47:59;;;;;;;21.10;10.75;;;5.80;99.90;;;;;;5050292;28;20045;-52
2023/12/15 08:50:25;;;;;;;27.45;10.45;;;5.80;99.90;;;;;;5049904;28;20553;-52
2023/12/15 08:52:50;;;;;;;24.98;11.15;;;5.80;99.90;;;;;;5048562;28;20048;-55
2023/12/15 08:55:16;;;;;;;22.55;10.50;;;5.90;99.90;;;;;;5046772;28;20068;-56
2023/12/15 08:57:42;;;;;;;21.70;11.55;;;5.90;99.90;;;;;;5035628;28;20103;-51
2023/12/15 09:00:08;;;;;;;22.48;10.15;;;5.90;99.90;;;;;;5044277;28;20025;-52
2023/12/15 09:02:33;;;;;;;27.52;11.30;;;5.90;99.90;;;;;;5050772;28;20039;-63
2023/12/15 09:05:00;;;;;;;24.30;11.30;;;5.90;99.90;;;;;;5047615;28;20513;-57
2023/12/15 09:07:26;;;;;;;20.60;11.27;;;5.90;99.90;;;;;;5047817;28;20403;-54
2023/12/15 09:09:52;;;;;;;25.90;10.45;;;5.90;99.90;;;;;;5045523;28;20028;-51
2023/12/15 09:12:18;;;;;;;20.38;10.80;;;5.90;99.90;;;;;;5047990;28;20040;-55
2023/12/15 09:14:44;;;;;;;20.85;10.35;;;5.90;99.90;;;;;;5044917;28;20498;-58
2023/12/15 09:17:13;;;;;;;26.70;10.25;;;5.90;99.90;;;;;;5048534;28;20117;-51
2023/12/15 09:19:40;;;;;;;23.08;10.55;;;6.00;99.90;;;;;;5048201;28;20025;-60
2023/12/15 09:22:06;;;;;;;23.85;12.15;;;5.90;99.90;;;;;;5043672;28;20028;-51
2023/12/15 09:24:33;;;;;;;23.83;11.93;;;6.00;99.90;;;;;;5046517;28;20029;-53
2023/12/15 09:26:59;;;;;;;25.17;13.43;;;6.10;99.90;;;;;;5046104;28;20391;-54
2023/12/15 09:29:25;;;;;;;28.55;12.65;;;6.10;99.90;;;;;;5049334;28;20025;-53
2023/12/15 09:31:51;;;;;;;35.08;15.18;;;6.20;99.90;;;;;;5051321;28;20021;-53
2023/12/15 09:34:17;;;;;;;39.03;21.40;;;6.20;99.90;;;;;;5045719;28;20100;-51
2023/12/15 09:36:43;;;;;;;57.08;26.13;;;6.30;99.90;;;;;;5041897;28;20031;-56
2023/12/15 09:39:08;;;;;;;33.85;16.77;;;6.30;99.90;;;;;;5048709;28;20047;-59
2023/12/15 09:41:35;;;;;;;28.77;13.43;;;6.30;99.90;;;;;;5046939;28;20026;-56
2023/12/15 09:44:01;;;;;;;25.67;13.35;;;6.30;99.90;;;;;;5048604;28;20449;-50
2023/12/15 09:46:27;;;;;;;23.92;11.75;;;6.30;99.90;;;;;;5042753;28;20025;-56
2023/12/15 09:48:53;;;;;;;24.45;13.90;;;6.30;99.90;;;;;;5047431;28;20491;-53
2023/12/15 09:51:23;;;;;;;22.52;11.60;;;6.30;99.90;;;;;;5049756;28;20052;-51
2023/12/15 09:53:50;;;;;;;22.25;11.73;;;6.30;99.90;;;;;;5049626;28;20029;-56
2023/12/15 09:56:16;;;;;;;22.63;11.82;;;6.40;99.90;;;;;;5049555;28;20529;-54
2023/12/15 09:58:42;;;;;;;33.13;12.50;;;6.40;99.90;;;;;;5049469;28;20075;-53
2023/12/15 10:01:09;;;;;;;28.08;15.05;;;6.40;99.90;;;;;;5051090;28;20031;-53
2023/12/15 10:03:35;;;;;;;24.88;12.77;;;6.40;99.90;;;;;;5048533;28;20491;-51
2023/12/15 10:06:01;;;;;;;25.50;13.18;;;6.40;99.90;;;;;;5047631;28;20108;-61
2023/12/15 10:08:42;;;;;;;22.92;11.50;;;6.50;99.90;;;;;;5048674;28;20025;-52
2023/12/15 10:11:08;;;;;;;23.88;12.38;;;6.50;99.90;;;;;;5048749;28;20083;-55
2023/12/15 10:13:33;;;;;;;21.15;10.80;;;6.50;99.90;;;;;;5052301;28;20024;-51
2023/12/15 10:15:59;;;;;;;25.85;11.63;;;6.60;99.90;;;;;;5049088;28;20558;-51
2023/12/15 10:18:25;;;;;;;26.00;10.93;;;6.60;99.90;;;;;;5048940;28;20708;-53
2023/12/15 10:20:53;;;;;;;25.70;12.13;;;6.60;99.90;;;;;;5048880;28;20044;-52
2023/12/15 10:23:29;;;;;;;28.98;12.25;;;6.70;99.90;;;;;;5049949;28;20025;-56
2023/12/15 10:25:58;;;;;;;25.58;12.43;;;6.70;99.90;;;;;;5049248;28;20037;-54
2023/12/15 10:28:23;;;;;;;27.15;12.20;;;6.70;99.90;;;;;;5050194;28;20045;-58
2023/12/15 10:30:50;;;;;;;29.13;15.07;;;6.70;99.90;;;;;;5052930;28;20064;-54
2023/12/15 10:33:17;;;;;;;29.65;13.30;;;6.70;99.90;;;;;;5052139;28;20028;-53
2023/12/15 10:35:46;;;;;;;31.20;13.93;;;6.70;99.90;;;;;;5046070;28;20029;-55
2023/12/15 10:38:12;;;;;;;131.52;47.72;;;6.80;99.90;;;;;;5049407;28;20115;-51
2023/12/15 10:40:38;;;;;;;38.72;17.33;;;6.80;99.90;;;;;;5050679;28;20116;-53
2023/12/15 10:43:04;;;;;;;52.45;18.75;;;6.90;99.90;;;;;;5046528;28;20055;-57
2023/12/15 10:45:32;;;;;;;27.38;12.85;;;6.90;99.90;;;;;;5050369;28;20045;-52
2023/12/15 10:48:00;;;;;;;19.70;10.65;;;6.90;99.90;;;;;;5049632;28;20033;-53
2023/12/15 10:50:27;;;;;;;23.60;11.93;;;6.90;99.90;;;;;;5050777;28;20570;-51
2023/12/15 10:52:55;;;;;;;25.67;12.18;;;7.00;99.90;;;;;;5049818;28;20135;-53
2023/12/15 10:55:23;;;;;;;24.63;12.63;;;7.00;99.90;;;;;;5050409;28;20455;-53
2023/12/15 10:57:49;;;;;;;25.35;12.43;;;6.90;99.90;;;;;;5043817;28;20032;-57
2023/12/15 11:00:17;;;;;;;27.10;13.15;;;6.90;99.90;;;;;;5048453;28;20120;-57
2023/12/15 11:02:47;;;;;;;29.70;13.02;;;6.80;99.90;;;;;;5049124;28;20021;-51
2023/12/15 11:05:15;;;;;;;22.15;10.60;;;6.80;99.90;;;;;;5050436;28;20025;-51
2023/12/15 11:07:41;;;;;;;24.92;12.50;;;6.90;99.90;;;;;;5051234;28;20060;-56
2023/12/15 11:10:09;;;;;;;26.83;12.68;;;7.00;99.90;;;;;;5051869;28;20048;-54
2023/12/15 11:12:42;;;;;;;31.10;15.25;;;7.00;99.90;;;;;;5048560;28;20102;-55
2023/12/15 11:15:12;;;;;;;39.17;18.80;;;7.00;99.90;;;;;;5048294;28;20537;-51
2023/12/15 11:17:45;;;;;;;28.77;15.40;;;7.00;99.90;;;;;;5048898;28;20037;-53
2023/12/15 11:20:18;;;;;;;27.17;14.57;;;7.10;99.90;;;;;;5048440;28;20108;-53
2023/12/15 11:22:57;;;;;;;24.70;12.90;;;7.10;99.90;;;;;;5050920;28;20032;-51
2023/12/15 11:25:49;;;;;;;25.70;11.52;;;7.20;99.90;;;;;;5049326;28;20025;-56
2023/12/15 11:28:17;;;;;;;24.60;11.57;;;7.20;99.90;;;;;;5047732;28;20560;-56
2023/12/15 11:30:48;;;;;;;24.00;11.85;;;7.30;99.90;;;;;;5049978;28;20024;-51
2023/12/15 11:33:26;;;;;;;26.92;12.00;;;7.30;99.90;;;;;;5047927;28;20048;-55
2023/12/15 11:35:59;;;;;;;26.77;12.52;;;7.40;99.90;;;;;;5048205;28;20106;-53
2023/12/15 11:38:26;;;;;;;46.63;20.08;;;7.50;99.90;;;;;;5049955;28;20033;-57
2023/12/15 11:40:53;;;;;;;47.22;20.98;;;7.60;99.90;;;;;;5049792;28;20348;-51
2023/12/15 11:43:19;;;;;;;38.70;18.58;;;7.70;99.90;;;;;;5051798;28;20036;-52
2023/12/15 11:45:45;;;;;;;40.20;16.40;;;7.80;99.90;;;;;;5047364;28;20036;-52
2023/12/15 11:48:11;;;;;;;46.03;19.55;;;7.90;99.90;;;;;;5046997;28;20053;-52
2023/12/15 11:50:42;;;;;;;73.20;26.05;;;8.00;99.90;;;;;;5045684;28;20622;-55
2023/12/15 11:53:08;;;;;;;47.15;19.63;;;8.00;99.90;;;;;;5050076;28;20023;-52
2023/12/15 11:55:33;;;;;;;42.58;19.85;;;8.10;99.90;;;;;;5047074;28;20083;-52
2023/12/15 11:57:59;;;;;;;41.65;18.50;;;8.10;99.90;;;;;;5045346;28;20044;-51
2023/12/15 12:00:28;;;;;;;54.38;21.48;;;8.20;99.90;;;;;;5044868;28;20690;-54
2023/12/15 12:02:55;;;;;;;44.60;18.42;;;8.20;99.90;;;;;;5044087;28;20507;-51
2023/12/15 12:05:21;;;;;;;47.40;20.23;;;8.30;99.90;;;;;;5048186;28;20688;-57
2023/12/15 12:07:47;;;;;;;39.05;17.08;;;8.30;99.90;;;;;;5037358;28;20025;-51
2023/12/15 12:10:13;;;;;;;38.88;15.90;;;8.30;99.90;;;;;;5042668;28;20029;-53
2023/12/15 12:12:39;;;;;;;35.22;16.52;;;8.40;99.90;;;;;;5043822;28;20700;-52
2023/12/15 12:15:07;;;;;;;32.15;15.18;;;8.30;99.90;;;;;;5029052;28;20029;-53
2023/12/15 12:17:34;;;;;;;35.00;16.60;;;8.30;99.90;;;;;;5040779;28;20029;-51
2023/12/15 12:20:06;;;;;;;41.83;17.92;;;8.20;99.90;;;;;;5046886;28;20032;-56
2023/12/15 12:22:38;;;;;;;36.30;16.75;;;8.20;99.90;;;;;;5042019;28;20040;-53
2023/12/15 12:25:04;;;;;;;44.13;21.10;;;8.10;99.90;;;;;;5029975;28;20629;-51
2023/12/15 12:27:32;;;;;;;40.72;19.90;;;8.10;99.90;;;;;;5051006;28;20118;-55
2023/12/15 12:29:59;;;;;;;36.30;17.40;;;8.10;99.90;;;;;;5047805;28;20031;-54